Time;durP1;ratioP1;P1;durP2;ratioP2;P2;SDS_P1;SDS_P2;PMS_P1;PMS_P2;Temp;Humidity;BMP_temperature;BMP_pressure;BME280_temperature;BME280_humidity;BME280_pressure;Samples;Min_cycle;Max_cycle;Signal;HPM_P1;HPM_P2
2023/05/08 00:00:37;;;;;;;0.60;0.60;;;;;;;10.64;76.22;98029.09;5032710;28;20049;-68
2023/05/08 00:03:05;;;;;;;0.70;0.70;;;;;;;10.46;77.08;98018.78;5028270;28;20098;-68
2023/05/08 00:05:32;;;;;;;0.20;0.20;;;;;;;10.53;76.82;98025.03;5030275;28;20467;-69
2023/05/08 00:08:00;;;;;;;0.60;0.60;;;;;;;10.34;77.65;98022.91;5026672;28;20076;-69
2023/05/08 00:10:28;;;;;;;0.52;0.52;;;;;;;10.45;77.64;98022.47;5021989;28;20107;-68
2023/05/08 00:12:56;;;;;;;0.68;0.68;;;;;;;10.68;76.15;98030.41;5026239;28;20080;-68
2023/05/08 00:15:24;;;;;;;0.55;0.55;;;;;;;10.28;76.71;98019.13;5023793;28;20050;-68
2023/05/08 00:17:53;;;;;;;0.75;0.75;;;;;;;10.42;76.72;98024.66;5027839;28;20037;-68
2023/05/08 00:20:21;;;;;;;0.60;0.60;;;;;;;10.46;76.37;98023.28;5025599;28;20060;-69
2023/05/08 00:22:48;;;;;;;0.73;0.73;;;;;;;10.49;76.17;98015.72;5027822;28;20175;-69
2023/05/08 00:25:16;;;;;;;0.60;0.60;;;;;;;10.41;75.97;98026.50;5026770;28;20046;-68
2023/05/08 00:27:43;;;;;;;0.75;0.75;;;;;;;10.22;77.08;98022.53;5024339;28;20088;-68
2023/05/08 00:30:12;;;;;;;0.80;0.80;;;;;;;10.23;76.64;98021.53;5028346;28;20046;-69
2023/05/08 00:32:40;;;;;;;0.60;0.60;;;;;;;10.22;76.80;98027.03;5029155;28;20420;-68
2023/05/08 00:35:09;;;;;;;0.85;0.85;;;;;;;10.12;77.39;98035.25;5028674;28;20060;-70
2023/05/08 00:37:39;;;;;;;0.77;0.77;;;;;;;10.11;76.91;98033.59;5022422;28;20572;-68
2023/05/08 00:40:08;;;;;;;0.68;0.68;;;;;;;10.17;75.62;98034.72;5029773;28;20040;-68
2023/05/08 00:42:36;;;;;;;0.63;0.63;;;;;;;10.15;74.64;98042.09;5027753;28;20061;-68
2023/05/08 00:45:05;;;;;;;0.57;0.57;;;;;;;10.26;75.06;98042.50;5028910;28;20046;-69
2023/05/08 00:47:32;;;;;;;0.60;0.60;;;;;;;10.28;74.29;98036.97;5023349;28;20095;-68
2023/05/08 00:50:00;;;;;;;0.68;0.68;;;;;;;10.21;73.88;98034.22;5029798;28;20574;-69
2023/05/08 00:52:30;;;;;;;0.60;0.60;;;;;;;10.13;73.31;98039.59;5021211;28;20390;-69
2023/05/08 00:54:59;;;;;;;0.80;0.80;;;;;;;10.09;72.70;98032.13;5026907;28;20135;-68
2023/05/08 00:57:26;;;;;;;0.77;0.77;;;;;;;10.04;71.79;98032.69;5024955;28;20033;-68
2023/05/08 00:59:55;;;;;;;0.68;0.68;;;;;;;10.05;71.18;98042.34;5011521;28;20049;-68
2023/05/08 01:02:22;;;;;;;0.70;0.70;;;;;;;10.08;71.21;98033.94;5018479;28;20054;-68
2023/05/08 01:04:50;;;;;;;0.50;0.50;;;;;;;10.05;70.60;98038.84;5024738;28;20562;-68
2023/05/08 01:07:18;;;;;;;0.60;0.60;;;;;;;9.94;71.03;98045.44;5021182;28;20064;-68
2023/05/08 01:09:47;;;;;;;0.90;0.90;;;;;;;9.95;71.27;98039.09;5025641;28;20144;-68
2023/05/08 01:12:18;;;;;;;0.93;0.93;;;;;;;9.96;71.29;98037.25;5023696;28;20054;-67
2023/05/08 01:14:54;;;;;;;0.75;0.75;;;;;;;10.05;70.92;98031.66;5028999;28;20048;-68
2023/05/08 01:17:26;;;;;;;0.60;0.60;;;;;;;9.97;70.63;98029.06;5029095;28;20069;-67
2023/05/08 01:20:08;;;;;;;0.70;0.70;;;;;;;9.88;70.78;98041.63;5020921;28;20275;-68
2023/05/08 01:22:59;;;;;;;0.52;0.52;;;;;;;9.79;70.41;98040.03;5024224;28;20382;-67
2023/05/08 01:25:50;;;;;;;0.80;0.80;;;;;;;9.74;70.23;98039.75;5029997;28;20103;-68
2023/05/08 01:29:12;;;;;;;0.75;0.75;;;;;;;9.70;70.06;98042.94;5028822;28;20038;-67
2023/05/08 01:31:50;;;;;;;0.88;0.88;;;;;;;9.54;70.35;98054.56;4915866;29;20189;-68
2023/05/08 01:34:21;;;;;;;0.68;0.68;;;;;;;9.57;70.50;98049.69;4948198;29;20062;-68
2023/05/08 01:36:52;;;;;;;0.90;0.90;;;;;;;9.64;69.96;98044.50;4996516;28;20464;-68
2023/05/08 01:39:21;;;;;;;0.80;0.80;;;;;;;9.70;69.94;98050.94;5029829;28;20099;-67
2023/05/08 01:41:56;;;;;;;0.68;0.68;;;;;;;9.74;70.20;98047.75;5024563;28;20098;-68
2023/05/08 01:44:28;;;;;;;0.50;0.50;;;;;;;9.65;69.58;98056.00;5024913;28;20073;-68
2023/05/08 01:46:56;;;;;;;0.63;0.63;;;;;;;9.57;69.42;98057.69;5025566;28;20042;-68
2023/05/08 01:49:28;;;;;;;0.68;0.68;;;;;;;9.52;69.90;98060.06;5022302;28;20077;-70
2023/05/08 01:51:59;;;;;;;0.60;0.60;;;;;;;9.54;70.20;98054.56;5026492;28;20037;-70
2023/05/08 01:54:29;;;;;;;0.70;0.70;;;;;;;9.53;69.97;98059.06;5026976;28;20045;-70
2023/05/08 01:56:59;;;;;;;0.80;0.80;;;;;;;9.50;69.52;98062.06;5027107;28;20041;-70
2023/05/08 01:59:28;;;;;;;0.63;0.63;;;;;;;9.53;69.54;98064.38;5027306;28;20045;-70
2023/05/08 02:01:57;;;;;;;0.68;0.68;;;;;;;9.61;69.27;98063.50;5026727;28;20100;-70
2023/05/08 02:04:26;;;;;;;0.73;0.73;;;;;;;9.44;69.15;98062.78;5029167;28;20045;-69
2023/05/08 02:06:55;;;;;;;1.30;1.30;;;;;;;9.25;69.81;98065.03;5025551;28;20049;-70
2023/05/08 02:09:24;;;;;;;0.82;0.82;;;;;;;9.14;70.04;98061.75;5026115;28;20091;-69
2023/05/08 02:11:53;;;;;;;0.93;0.93;;;;;;;9.01;71.01;98066.00;5021305;28;20071;-70
2023/05/08 02:14:21;;;;;;;0.55;0.55;;;;;;;9.05;70.27;98061.97;5027883;28;20078;-71
2023/05/08 02:16:51;;;;;;;0.55;0.55;;;;;;;8.97;70.75;98070.00;5020577;28;20050;-70
2023/05/08 02:19:20;;;;;;;0.50;0.50;;;;;;;8.93;70.76;98077.50;5027195;28;20370;-71
2023/05/08 02:21:50;;;;;;;0.75;0.75;;;;;;;9.01;70.70;98080.16;5026658;28;20088;-70
2023/05/08 02:24:18;;;;;;;1.00;1.00;;;;;;;9.07;70.70;98079.44;5020263;28;20053;-71
2023/05/08 02:26:46;;;;;;;0.70;0.70;;;;;;;9.07;70.85;98079.44;5021549;28;20049;-71
2023/05/08 02:29:13;;;;;;;2.53;2.47;;;;;;;9.01;70.76;98074.81;5027464;28;20033;-71
2023/05/08 02:31:41;;;;;;;0.65;0.65;;;;;;;9.10;70.77;98075.59;5021969;28;20095;-71
2023/05/08 02:34:09;;;;;;;0.80;0.80;;;;;;;9.08;70.21;98078.44;5025073;28;20051;-71
2023/05/08 02:36:37;;;;;;;0.65;0.65;;;;;;;9.01;70.21;98080.16;5026003;28;20068;-71
2023/05/08 02:39:07;;;;;;;0.60;0.60;;;;;;;9.05;70.35;98081.44;5030315;28;20041;-71
2023/05/08 02:41:35;;;;;;;0.80;0.80;;;;;;;9.03;70.97;98077.31;5024849;28;20136;-71
2023/05/08 02:44:04;;;;;;;0.70;0.70;;;;;;;9.03;70.45;98080.78;5022632;28;20038;-70
2023/05/08 02:46:37;;;;;;;0.70;0.70;;;;;;;9.05;70.44;98081.44;5027375;28;20103;-70
2023/05/08 02:49:08;;;;;;;0.70;0.70;;;;;;;9.04;70.04;98086.94;5016534;28;20037;-70
2023/05/08 02:51:41;;;;;;;0.65;0.65;;;;;;;9.07;70.04;98081.28;5026664;28;20063;-71
2023/05/08 02:54:11;;;;;;;0.47;0.47;;;;;;;9.06;70.44;98091.09;5028302;28;20049;-71
2023/05/08 02:56:43;;;;;;;0.85;0.77;;;;;;;9.06;70.41;98079.59;5026858;28;20033;-71
2023/05/08 02:59:16;;;;;;;0.88;0.88;;;;;;;9.13;70.49;98085.94;5029484;28;20041;-71
2023/05/08 03:01:48;;;;;;;0.95;0.95;;;;;;;8.93;70.11;98080.16;5026582;28;20057;-70
2023/05/08 03:04:24;;;;;;;0.80;0.80;;;;;;;8.97;70.20;98084.13;5022888;28;20041;-70
2023/05/08 03:06:55;;;;;;;0.70;0.70;;;;;;;9.05;70.16;98081.44;5020604;28;20107;-71
2023/05/08 03:09:28;;;;;;;0.85;0.85;;;;;;;8.96;69.91;98084.31;5026653;28;20555;-71
2023/05/08 03:12:02;;;;;;;0.77;0.77;;;;;;;9.06;70.11;98079.59;5016089;28;20076;-70
2023/05/08 03:14:32;;;;;;;0.60;0.60;;;;;;;9.09;69.54;98073.94;5017733;28;20046;-71
2023/05/08 03:17:00;;;;;;;0.68;0.68;;;;;;;9.02;69.99;98071.16;5022007;28;20133;-71
2023/05/08 03:19:31;;;;;;;0.70;0.70;;;;;;;8.92;70.01;98078.53;5024265;28;20405;-71
2023/05/08 03:22:00;;;;;;;0.93;0.93;;;;;;;8.79;69.97;98073.72;5022989;28;20108;-71
2023/05/08 03:24:31;;;;;;;0.20;0.20;;;;;;;8.73;70.37;98078.88;5017315;28;20545;-71
2023/05/08 03:26:59;;;;;;;0.50;0.50;;;;;;;8.61;70.42;98078.44;5018210;28;20041;-71
2023/05/08 03:29:27;;;;;;;0.30;0.30;;;;;;;8.59;70.85;98068.97;5024292;28;20456;-71
2023/05/08 03:31:57;;;;;;;0.77;0.77;;;;;;;8.45;71.35;98070.50;5029564;28;20462;-71
2023/05/08 03:34:25;;;;;;;0.77;0.77;;;;;;;8.38;71.43;98070.34;5021796;28;20084;-68
2023/05/08 03:36:52;;;;;;;0.55;0.55;;;;;;;8.38;71.60;98085.47;5027893;28;20497;-69
2023/05/08 03:39:20;;;;;;;0.80;0.80;;;;;;;8.37;71.82;98079.31;5028171;28;20633;-69
2023/05/08 03:41:49;;;;;;;0.88;0.88;;;;;;;8.34;71.91;98081.47;5028083;28;20038;-69
2023/05/08 03:44:17;;;;;;;0.73;0.73;;;;;;;8.37;71.90;98079.31;5028288;28;20042;-70
2023/05/08 03:46:46;;;;;;;0.80;0.80;;;;;;;8.33;72.04;98077.16;5028561;28;20049;-69
2023/05/08 03:49:14;;;;;;;1.02;1.02;;;;;;;8.40;71.77;98088.81;5022844;28;20171;-69
2023/05/08 03:51:42;;;;;;;0.90;0.90;;;;;;;8.39;71.44;98079.16;5024311;28;20190;-69
2023/05/08 03:54:10;;;;;;;0.73;0.73;;;;;;;8.30;71.91;98086.28;5028683;28;20405;-69
2023/05/08 03:56:37;;;;;;;0.63;0.63;;;;;;;8.39;71.77;98080.00;5020712;28;20049;-69
2023/05/08 03:59:15;;;;;;;0.75;0.75;;;;;;;8.26;72.21;98098.25;5023585;28;20034;-69
2023/05/08 04:01:48;;;;;;;0.70;0.70;;;;;;;8.36;72.06;98093.63;5028827;28;20455;-69
2023/05/08 04:04:18;;;;;;;0.70;0.70;;;;;;;8.35;71.83;98104.41;5027603;28;20048;-69
2023/05/08 04:06:50;;;;;;;1.05;1.05;;;;;;;8.43;71.75;98102.56;5027384;28;20038;-69
2023/05/08 04:09:28;;;;;;;0.80;0.80;;;;;;;8.28;72.03;98101.56;5027880;28;20111;-70
2023/05/08 04:12:02;;;;;;;0.65;0.65;;;;;;;8.25;71.99;98109.03;5022344;28;20528;-69
2023/05/08 04:14:35;;;;;;;0.40;0.40;;;;;;;8.34;72.33;98108.91;5019108;28;20508;-69
2023/05/08 04:17:07;;;;;;;0.70;0.70;;;;;;;8.42;71.85;98108.06;5026702;28;20038;-69
2023/05/08 04:19:38;;;;;;;2.22;2.22;;;;;;;8.50;71.50;98116.03;5018041;28;20505;-69
2023/05/08 04:22:08;;;;;;;0.70;0.70;;;;;;;8.52;71.44;98118.50;5026230;28;20038;-69
2023/05/08 04:24:41;;;;;;;1.00;1.00;;;;;;;8.70;71.00;98113.84;5023097;28;20045;-69
2023/05/08 04:27:09;;;;;;;0.93;0.93;;;;;;;8.65;70.93;98118.84;5027700;28;20054;-69
2023/05/08 04:29:39;;;;;;;0.80;0.80;;;;;;;8.75;71.35;98124.78;5032713;28;20042;-69
2023/05/08 04:32:08;;;;;;;0.65;0.65;;;;;;;8.46;71.47;98122.69;5024718;28;20046;-69
2023/05/08 04:34:36;;;;;;;0.65;0.65;;;;;;;8.50;71.81;98128.53;5021336;28;20508;-70
2023/05/08 04:37:06;;;;;;;0.88;0.88;;;;;;;8.59;72.06;98125.69;5028402;28;20084;-70
2023/05/08 04:39:34;;;;;;;0.80;0.80;;;;;;;8.57;71.88;98117.03;5025826;28;20046;-69
2023/05/08 04:42:03;;;;;;;0.93;0.93;;;;;;;8.71;71.46;98127.00;5030417;28;20049;-71
2023/05/08 04:44:33;;;;;;;0.68;0.68;;;;;;;8.73;70.79;98132.94;5022695;28;20059;-69
2023/05/08 04:47:02;;;;;;;0.63;0.63;;;;;;;8.61;70.84;98134.31;5030886;28;20501;-69
2023/05/08 04:49:30;;;;;;;0.68;0.68;;;;;;;8.59;71.05;98140.81;5024678;28;20073;-69
2023/05/08 04:51:58;;;;;;;0.80;0.80;;;;;;;8.51;71.31;98143.47;5029684;28;20091;-69
2023/05/08 04:54:25;;;;;;;0.93;0.93;;;;;;;8.51;71.22;98143.47;5026970;28;20067;-69
2023/05/08 04:56:53;;;;;;;0.82;0.82;;;;;;;8.69;70.51;98141.47;5034015;28;20575;-69
2023/05/08 04:59:21;;;;;;;0.80;0.80;;;;;;;8.59;70.79;98144.28;5031835;28;20037;-69
2023/05/08 05:01:48;;;;;;;0.73;0.73;;;;;;;8.60;71.02;98145.13;5029744;28;20037;-69
2023/05/08 05:04:17;;;;;;;0.93;0.93;;;;;;;8.67;71.05;98148.78;5021875;28;20042;-69
2023/05/08 05:06:45;;;;;;;0.82;0.82;;;;;;;8.56;71.22;98139.31;5028045;28;20133;-69
2023/05/08 05:09:13;;;;;;;1.30;1.30;;;;;;;8.67;71.33;98140.78;5026722;28;20041;-69
2023/05/08 05:11:41;;;;;;;0.80;0.80;;;;;;;8.84;70.44;98145.06;5024651;28;20622;-69
2023/05/08 05:14:08;;;;;;;0.30;0.30;;;;;;;8.93;69.87;98141.38;5027939;28;20542;-69
2023/05/08 05:16:36;;;;;;;0.73;0.73;;;;;;;8.92;69.80;98138.91;5026656;28;20037;-70
2023/05/08 05:19:04;;;;;;;0.80;0.80;;;;;;;8.90;69.84;98141.75;5014632;28;20069;-70
2023/05/08 05:21:34;;;;;;;0.68;0.68;;;;;;;8.89;70.04;98142.75;5027915;28;20046;-70
2023/05/08 05:24:02;;;;;;;0.90;0.90;;;;;;;9.06;70.04;98140.84;5022583;28;20093;-68
2023/05/08 05:26:29;;;;;;;0.85;0.85;;;;;;;9.11;69.68;98142.00;5025097;28;20053;-70
2023/05/08 05:28:57;;;;;;;0.85;0.85;;;;;;;9.11;69.73;98143.84;5017153;28;20057;-69
2023/05/08 05:31:25;;;;;;;0.70;0.70;;;;;;;9.21;69.17;98128.50;5022957;28;20054;-69
2023/05/08 05:33:52;;;;;;;0.90;0.90;;;;;;;9.30;69.43;98138.09;5026365;28;20064;-71
2023/05/08 05:36:20;;;;;;;0.93;0.93;;;;;;;9.45;69.11;98133.69;5026391;28;20096;-71
2023/05/08 05:38:49;;;;;;;0.82;0.82;;;;;;;9.52;68.97;98126.69;5023292;28;20045;-71
2023/05/08 05:41:17;;;;;;;0.65;0.65;;;;;;;9.55;68.35;98139.63;5029483;28;20037;-72
2023/05/08 05:43:45;;;;;;;0.93;0.93;;;;;;;9.65;68.65;98143.94;5026386;28;20042;-70
2023/05/08 05:46:13;;;;;;;0.73;0.73;;;;;;;9.71;68.44;98144.06;5026603;28;20044;-70
2023/05/08 05:48:41;;;;;;;0.30;0.30;;;;;;;9.69;68.23;98137.22;5026643;28;20472;-70
2023/05/08 05:51:09;;;;;;;1.00;1.00;;;;;;;9.77;68.23;98146.00;5032514;28;20040;-71
2023/05/08 05:53:38;;;;;;;0.70;0.70;;;;;;;9.86;68.20;98142.28;5022435;28;20120;-69
2023/05/08 05:56:07;;;;;;;0.98;0.98;;;;;;;9.97;68.13;98141.03;5023293;28;20049;-71
2023/05/08 05:58:35;;;;;;;0.73;0.73;;;;;;;10.01;67.90;98141.53;5027794;28;20044;-71
2023/05/08 06:01:03;;;;;;;0.93;0.93;;;;;;;10.07;68.01;98140.84;5027166;28;20042;-71
2023/05/08 06:03:31;;;;;;;0.80;0.80;;;;;;;10.17;nan;98149.44;5035664;28;20046;-69
2023/05/08 06:05:59;;;;;;;0.82;0.82;;;;;;;10.18;68.24;98143.09;5025261;28;20092;-69
2023/05/08 06:08:26;;;;;;;0.90;0.90;;;;;;;10.15;68.32;98154.94;5026070;28;20049;-69
2023/05/08 06:10:55;;;;;;;0.77;0.77;;;;;;;10.12;68.83;98152.63;5021317;28;20069;-69
2023/05/08 06:13:25;;;;;;;0.75;0.75;;;;;;;10.22;68.76;98142.56;5024373;28;20030;-69
2023/05/08 06:15:55;;;;;;;0.68;0.68;;;;;;;10.28;68.55;98151.69;5024160;28;20041;-69
2023/05/08 06:18:23;;;;;;;0.80;0.80;;;;;;;10.47;68.44;98148.53;5027334;28;20111;-69
2023/05/08 06:20:55;;;;;;;0.63;0.63;;;;;;;10.58;67.65;98147.28;5029291;28;20041;-70
2023/05/08 06:23:23;;;;;;;1.02;1.02;;;;;;;10.63;67.74;98152.91;5026217;28;20087;-69
2023/05/08 06:25:51;;;;;;;0.80;0.80;;;;;;;10.77;67.14;98152.09;5021355;28;20049;-70
2023/05/08 06:28:18;;;;;;;0.93;0.93;;;;;;;10.90;66.24;98149.59;5027419;28;20103;-71
2023/05/08 06:30:47;;;;;;;0.90;0.90;;;;;;;10.93;66.24;98143.91;5027058;28;20044;-71
2023/05/08 06:33:15;;;;;;;0.77;0.70;;;;;;;11.00;66.07;98150.16;5020582;28;20128;-69
2023/05/08 06:35:46;;;;;;;0.82;0.82;;;;;;;11.12;65.62;98141.69;5026801;28;20041;-69
2023/05/08 06:38:14;;;;;;;0.73;0.73;;;;;;;11.12;65.61;98147.88;5020552;28;20049;-70
2023/05/08 06:40:43;;;;;;;0.73;0.73;;;;;;;11.16;65.65;98157.19;5026685;28;20103;-69
2023/05/08 06:43:11;;;;;;;0.90;0.90;;;;;;;11.15;65.19;98150.19;5014950;28;20125;-69
2023/05/08 06:45:38;;;;;;;0.57;0.57;;;;;;;11.01;65.52;98156.34;5024744;28;20045;-70
2023/05/08 06:48:07;;;;;;;0.40;0.40;;;;;;;11.00;65.56;98158.19;5027445;28;20508;-69
2023/05/08 06:50:38;;;;;;;0.70;0.70;;;;;;;10.97;65.65;98150.56;5022532;28;20108;-69
2023/05/08 06:53:05;;;;;;;0.50;0.50;;;;;;;11.08;65.27;98162.63;5022595;28;20067;-69
2023/05/08 06:55:33;;;;;;;0.63;0.63;;;;;;;11.24;65.14;98159.75;5026963;28;20041;-69
2023/05/08 06:58:01;;;;;;;0.80;0.80;;;;;;;11.39;64.56;98152.56;5029978;28;20046;-69
2023/05/08 07:00:28;;;;;;;0.88;0.88;;;;;;;11.34;64.90;98154.13;5014293;28;20046;-69
2023/05/08 07:02:56;;;;;;;0.80;0.80;;;;;;;11.22;64.65;98153.75;5029040;28;20063;-69
2023/05/08 07:05:25;;;;;;;0.82;0.82;;;;;;;11.49;64.17;98159.47;5026069;28;20096;-69
2023/05/08 07:07:53;;;;;;;0.90;0.90;;;;;;;11.42;64.28;98155.91;5015349;28;20485;-69
2023/05/08 07:10:21;;;;;;;0.77;0.77;;;;;;;11.57;63.52;98167.38;5023030;28;20073;-69
2023/05/08 07:12:49;;;;;;;0.70;0.70;;;;;;;11.48;63.22;98160.50;5027231;28;20068;-69
2023/05/08 07:15:17;;;;;;;0.30;0.30;;;;;;;11.57;63.20;98159.38;5026334;28;20465;-70
2023/05/08 07:17:50;;;;;;;1.08;1.08;;;;;;;11.51;63.30;98160.13;5028412;28;20048;-69
2023/05/08 07:20:18;;;;;;;0.65;0.65;;;;;;;11.65;63.10;98164.59;5028268;28;20041;-69
2023/05/08 07:22:47;;;;;;;0.65;0.65;;;;;;;11.71;62.32;98161.19;5024773;28;20100;-69
2023/05/08 07:25:15;;;;;;;0.70;0.70;;;;;;;11.58;62.24;98137.78;5033156;28;20049;-71
2023/05/08 07:27:42;;;;;;;1.30;1.30;;;;;;;11.51;63.07;98155.59;5027687;28;20045;-69
2023/05/08 07:30:10;;;;;;;0.80;0.80;;;;;;;11.64;62.67;98162.94;5032961;28;20381;-69
2023/05/08 07:32:38;;;;;;;0.82;0.82;;;;;;;11.84;61.83;98164.03;5028157;28;20052;-69
2023/05/08 07:35:08;;;;;;;0.77;0.77;;;;;;;11.67;62.01;98159.91;5029872;28;20072;-69
2023/05/08 07:37:37;;;;;;;0.70;0.70;;;;;;;11.63;62.39;98159.44;5022875;28;20100;-69
2023/05/08 07:40:07;;;;;;;0.70;0.70;;;;;;;11.73;61.72;98159.97;5026321;28;20092;-69
2023/05/08 07:42:40;;;;;;;0.68;0.68;;;;;;;11.89;61.48;98163.47;5023047;28;20048;-69
2023/05/08 07:45:08;;;;;;;0.82;0.82;;;;;;;11.96;61.10;98162.53;5029889;28;20107;-69
2023/05/08 07:47:36;;;;;;;0.68;0.68;;;;;;;12.23;59.76;98170.84;5030838;28;20034;-69
2023/05/08 07:50:05;;;;;;;0.60;0.60;;;;;;;12.35;59.77;98163.97;5030451;28;20068;-70
2023/05/08 07:52:32;;;;;;;0.70;0.70;;;;;;;12.45;59.47;98159.13;5024792;28;20441;-69
2023/05/08 07:55:00;;;;;;;0.60;0.60;;;;;;;12.48;59.38;98170.25;5029615;28;20053;-70
2023/05/08 07:57:36;;;;;;;0.65;0.65;;;;;;;12.51;59.23;98169.03;5026158;28;20076;-69
2023/05/08 08:00:04;;;;;;;0.73;0.73;;;;;;;12.54;58.81;98168.66;5014288;28;20494;-69
2023/05/08 08:02:39;;;;;;;0.55;0.55;;;;;;;12.37;58.63;98168.09;5025225;28;20046;-69
2023/05/08 08:05:08;;;;;;;0.20;0.20;;;;;;;12.42;58.72;98162.19;5029741;28;20455;-69
2023/05/08 08:07:35;;;;;;;0.52;0.52;;;;;;;12.45;58.83;98172.50;5016521;28;20054;-69
2023/05/08 08:10:03;;;;;;;0.63;0.63;;;;;;;12.59;58.66;98165.41;5023403;28;20045;-70
2023/05/08 08:12:32;;;;;;;0.25;0.25;;;;;;;13.01;57.58;98169.84;5020757;28;20461;-70
2023/05/08 08:15:00;;;;;;;0.30;0.30;;;;;;;13.19;56.62;98156.78;5027683;28;20385;-69
2023/05/08 08:17:27;;;;;;;0.80;0.80;;;;;;;13.26;56.37;98154.16;5025359;28;20083;-70
2023/05/08 08:19:55;;;;;;;0.98;0.98;;;;;;;13.26;55.97;98154.16;5026958;28;20042;-69
2023/05/08 08:22:23;;;;;;;0.70;0.70;;;;;;;13.21;56.33;98158.25;5024630;28;20050;-69
2023/05/08 08:24:51;;;;;;;0.60;0.60;;;;;;;13.23;56.35;98158.06;5022523;28;20387;-70
2023/05/08 08:27:21;;;;;;;0.60;0.60;;;;;;;13.19;55.78;98156.78;5027212;28;20088;-70
2023/05/08 08:29:51;;;;;;;0.73;0.73;;;;;;;13.20;56.32;98148.56;5022459;28;20046;-70
2023/05/08 08:32:31;;;;;;;0.20;0.20;;;;;;;13.43;55.85;98150.94;5021279;28;20381;-69
2023/05/08 08:34:58;;;;;;;0.80;0.80;;;;;;;13.46;55.18;98155.94;5024048;28;20056;-69
2023/05/08 08:37:26;;;;;;;0.60;0.60;;;;;;;13.40;56.04;98155.88;5029304;28;20448;-69
2023/05/08 08:39:54;;;;;;;0.57;0.57;;;;;;;13.69;54.16;98155.63;5026700;28;20052;-70
2023/05/08 08:42:22;;;;;;;0.60;0.60;;;;;;;13.75;53.54;98149.44;5020973;28;20084;-70
2023/05/08 08:44:51;;;;;;;0.55;0.55;;;;;;;13.76;54.80;98155.63;5031201;28;20494;-69
2023/05/08 08:47:19;;;;;;;0.65;0.65;;;;;;;13.93;53.70;98159.59;5030542;28;20049;-69
2023/05/08 08:49:48;;;;;;;0.95;0.95;;;;;;;13.97;53.67;98147.44;5031190;28;20042;-70
2023/05/08 08:52:21;;;;;;;0.50;0.50;;;;;;;14.06;53.20;98153.47;5030711;28;20071;-69
2023/05/08 08:54:49;;;;;;;0.30;0.30;;;;;;;14.32;52.53;98153.53;5024246;28;20452;-68
2023/05/08 08:57:17;;;;;;;0.65;0.65;;;;;;;14.47;51.31;98148.81;5029627;28;20053;-71
2023/05/08 08:59:44;;;;;;;0.70;0.70;;;;;;;14.43;52.04;98144.06;5023875;28;20568;-69
2023/05/08 09:02:16;;;;;;;0.70;0.70;;;;;;;14.73;51.94;98148.00;5032588;28;20509;-69
2023/05/08 09:04:44;;;;;;;0.60;0.60;;;;;;;14.77;50.84;98143.00;5031603;28;20106;-69
2023/05/08 09:07:12;;;;;;;1.15;1.15;;;;;;;14.83;50.33;98142.19;5025122;28;20069;-69
2023/05/08 09:09:40;;;;;;;0.63;0.63;;;;;;;14.88;50.17;98145.06;5018846;28;20049;-69
2023/05/08 09:12:08;;;;;;;0.55;0.55;;;;;;;14.96;49.50;98145.69;5023393;28;20046;-69
2023/05/08 09:14:36;;;;;;;0.60;0.60;;;;;;;15.02;49.53;98144.88;5027825;28;20096;-69
2023/05/08 09:17:04;;;;;;;0.45;0.45;;;;;;;15.12;49.49;98140.91;5023237;28;20505;-69
2023/05/08 09:19:33;;;;;;;0.77;0.77;;;;;;;15.23;48.92;98134.91;5020757;28;20103;-69
2023/05/08 09:22:01;;;;;;;0.60;0.60;;;;;;;15.36;48.46;98134.88;5025934;28;20144;-70
2023/05/08 09:24:56;;;;;;;0.50;0.50;;;;;;;15.54;47.40;98137.72;5022190;28;20125;-70
2023/05/08 09:27:25;;;;;;;0.50;0.50;;;;;;;15.73;47.36;98136.81;5026088;28;20038;-69
2023/05/08 09:30:05;;;;;;;0.63;0.63;;;;;;;15.78;47.49;98134.28;5021908;28;20045;-70
2023/05/08 09:32:33;;;;;;;0.57;0.57;;;;;;;15.42;48.71;98134.84;5026419;28;20124;-69
2023/05/08 09:35:03;;;;;;;0.57;0.57;;;;;;;15.89;47.81;98130.09;5022580;28;20063;-69
2023/05/08 09:37:30;;;;;;;0.50;0.50;;;;;;;16.06;46.97;98135.81;5020249;28;20095;-69
2023/05/08 09:40:15;;;;;;;0.20;0.20;;;;;;;16.36;46.69;98133.34;5021461;28;20424;-70
2023/05/08 09:42:42;;;;;;;0.63;0.63;;;;;;;16.28;46.34;98131.75;5022462;28;20038;-70
2023/05/08 09:45:11;;;;;;;0.77;0.77;;;;;;;16.37;45.57;98121.53;5018919;28;20038;-70
2023/05/08 09:47:47;;;;;;;1.00;1.00;;;;;;;16.53;45.37;98120.97;5021661;28;20116;-69
2023/05/08 09:50:17;;;;;;;0.10;0.10;;;;;;;16.59;45.08;98122.00;5026327;28;20536;-70
2023/05/08 09:52:46;;;;;;;0.57;0.57;;;;;;;16.59;44.07;98122.00;5017394;28;20481;-70
2023/05/08 09:55:14;;;;;;;0.22;0.10;;;;;;;16.82;45.10;98122.22;5015058;28;20432;-69
2023/05/08 09:57:52;;;;;;;0.93;0.93;;;;;;;16.91;44.35;98112.81;5018673;28;20124;-70
2023/05/08 10:00:20;;;;;;;0.45;0.45;;;;;;;16.78;44.27;98115.63;5019972;28;20049;-69
2023/05/08 10:02:55;;;;;;;0.52;0.52;;;;;;;16.92;44.22;98124.44;5020979;28;20038;-70
2023/05/08 10:05:26;;;;;;;0.47;0.47;;;;;;;17.04;43.37;98118.06;5016286;28;20042;-70
2023/05/08 10:07:54;;;;;;;0.50;0.50;;;;;;;17.08;41.97;98113.06;5014698;28;20077;-69
2023/05/08 10:10:26;;;;;;;0.50;0.50;;;;;;;17.59;40.15;98112.69;5016949;28;20050;-70
2023/05/08 10:12:55;;;;;;;0.60;0.60;;;;;;;17.78;39.04;98111.63;5021246;28;20052;-70
2023/05/08 10:15:24;;;;;;;0.50;0.50;;;;;;;18.00;35.46;98103.84;5021892;28;20121;-69
2023/05/08 10:17:55;;;;;;;0.60;0.60;;;;;;;17.98;34.68;98104.09;5017893;28;20053;-69
2023/05/08 10:20:25;;;;;;;0.60;0.60;;;;;;;18.21;35.08;98111.44;5022802;28;20120;-69
2023/05/08 10:22:55;;;;;;;0.52;0.52;;;;;;;18.37;37.56;98115.38;5024415;28;20034;-70
2023/05/08 10:25:24;;;;;;;0.65;0.65;;;;;;;18.35;33.27;98106.69;5016342;28;20061;-70
2023/05/08 10:27:57;;;;;;;0.50;0.50;;;;;;;18.41;33.77;98108.44;5027550;28;20121;-70
2023/05/08 10:30:25;;;;;;;0.20;0.20;;;;;;;18.62;34.10;98104.41;5012534;28;20441;-70
2023/05/08 10:32:54;;;;;;;0.40;0.40;;;;;;;18.54;33.39;98102.00;5016913;28;20045;-70
2023/05/08 10:35:22;;;;;;;0.43;0.43;;;;;;;18.38;33.04;98102.66;5021008;28;20057;-70
2023/05/08 10:37:54;;;;;;;0.63;0.63;;;;;;;18.42;33.65;98103.88;5021877;28;20489;-71
2023/05/08 10:40:22;;;;;;;0.35;0.35;;;;;;;18.50;33.79;98100.81;5025069;28;20096;-70
2023/05/08 10:42:50;;;;;;;0.40;0.40;;;;;;;18.66;36.99;98106.41;5029761;28;20520;-70
2023/05/08 10:45:18;;;;;;;0.52;0.52;;;;;;;18.78;38.77;98111.00;5022343;28;20547;-71
2023/05/08 10:47:53;;;;;;;0.52;0.52;;;;;;;18.63;33.80;98114.16;5024815;28;20065;-71
2023/05/08 10:50:39;;;;;;;0.45;0.45;;;;;;;18.47;33.94;98109.41;5026438;28;20520;-70
2023/05/08 10:53:11;;;;;;;0.40;0.40;;;;;;;18.47;33.69;98098.59;5024904;28;20100;-71
2023/05/08 10:55:41;;;;;;;0.40;0.40;;;;;;;18.28;33.26;98082.44;5019452;28;20046;-71
2023/05/08 10:58:14;;;;;;;0.40;0.40;;;;;;;18.25;33.94;98095.59;5026141;28;20397;-71
2023/05/08 11:01:11;;;;;;;0.40;0.40;;;;;;;18.18;34.50;98097.56;5027312;28;20042;-71
2023/05/08 11:03:41;;;;;;;0.60;0.60;;;;;;;18.40;35.86;98097.84;5023623;28;20457;-71
2023/05/08 11:06:09;;;;;;;0.40;0.40;;;;;;;18.27;33.28;98093.50;5021912;28;20030;-71
2023/05/08 11:08:46;;;;;;;0.40;0.40;;;;;;;18.40;34.26;98084.34;5020090;28;20045;-70
2023/05/08 11:11:20;;;;;;;0.60;0.60;;;;;;;18.56;36.54;98092.63;5022837;28;20049;-70
2023/05/08 11:13:50;;;;;;;0.47;0.47;;;;;;;18.74;37.92;98091.72;5023057;28;20048;-70
2023/05/08 11:16:18;;;;;;;0.10;0.10;;;;;;;18.98;38.15;98089.84;5020019;28;20459;-71
2023/05/08 11:19:16;;;;;;;0.40;0.40;;;;;;;19.13;33.86;98094.75;5018888;28;20425;-71
2023/05/08 11:22:29;;;;;;;0.30;0.30;;;;;;;19.20;32.85;98087.34;5021735;28;20108;-71
2023/05/08 11:25:00;;;;;;;0.40;0.40;;;;;;;19.06;32.81;98090.31;4958327;28;20055;-71
2023/05/08 11:27:36;;;;;;;0.50;0.50;;;;;;;18.93;33.21;98087.00;5010256;28;20136;-71
2023/05/08 11:30:25;;;;;;;0.38;0.38;;;;;;;18.82;32.94;98087.81;5025634;28;20554;-71
2023/05/08 11:32:57;;;;;;;0.35;0.35;;;;;;;18.66;33.45;98092.06;5027666;28;20026;-70
2023/05/08 11:35:52;;;;;;;0.55;0.55;;;;;;;18.84;33.36;98093.84;5028083;28;20167;-70
2023/05/08 11:38:30;;;;;;;0.32;0.32;;;;;;;18.52;32.89;98083.31;4994321;28;20067;-70
2023/05/08 11:41:01;;;;;;;0.60;0.60;;;;;;;18.45;33.43;98087.19;5031136;28;20037;-70
2023/05/08 11:43:43;;;;;;;0.43;0.43;;;;;;;18.56;33.71;98087.22;5030532;28;20037;-70
2023/05/08 11:46:14;;;;;;;0.68;0.68;;;;;;;18.53;34.98;98082.25;5020706;28;20061;-70
2023/05/08 11:48:41;;;;;;;0.30;0.30;;;;;;;18.45;35.03;98081.78;5032949;28;20347;-70
2023/05/08 11:51:09;;;;;;;0.45;0.45;;;;;;;18.54;34.10;98081.19;5023432;28;20089;-70